sensor_id;sensor_type;location;lat;lon;timestamp;temperature;humidity
31455;DHT22;18084;53.028;8.834;2022-10-16T00:01:05;12.80;99.90
31455;DHT22;18084;53.028;8.834;2022-10-16T00:03:31;12.80;99.90
31455;DHT22;18084;53.028;8.834;2022-10-16T00:05:58;12.80;99.90
31455;DHT22;18084;53.028;8.834;2022-10-16T00:08:24;12.80;99.90
31455;DHT22;18084;53.028;8.834;2022-10-16T00:10:49;12.80;99.90
31455;DHT22;18084;53.028;8.834;2022-10-16T00:13:15;12.80;99.90
31455;DHT22;18084;53.028;8.834;2022-10-16T00:15:42;12.70;99.90
31455;DHT22;18084;53.028;8.834;2022-10-16T00:18:10;12.70;99.90
31455;DHT22;18084;53.028;8.834;2022-10-16T00:20:35;12.70;99.90
31455;DHT22;18084;53.028;8.834;2022-10-16T00:23:03;12.60;99.90
31455;DHT22;18084;53.028;8.834;2022-10-16T00:25:29;12.60;99.90
31455;DHT22;18084;53.028;8.834;2022-10-16T00:27:54;12.60;99.90
31455;DHT22;18084;53.028;8.834;2022-10-16T00:30:20;12.60;99.90
31455;DHT22;18084;53.028;8.834;2022-10-16T00:32:45;12.60;99.90
31455;DHT22;18084;53.028;8.834;2022-10-16T00:35:11;12.60;99.90
31455;DHT22;18084;53.028;8.834;2022-10-16T00:37:36;12.50;99.90
31455;DHT22;18084;53.028;8.834;2022-10-16T00:40:02;12.50;99.90
31455;DHT22;18084;53.028;8.834;2022-10-16T00:42:28;12.50;99.90
31455;DHT22;18084;53.028;8.834;2022-10-16T00:44:56;12.40;99.90
31455;DHT22;18084;53.028;8.834;2022-10-16T00:47:32;12.40;99.90
31455;DHT22;18084;53.028;8.834;2022-10-16T00:50:09;12.40;99.90
31455;DHT22;18084;53.028;8.834;2022-10-16T00:52:40;12.40;99.90
31455;DHT22;18084;53.028;8.834;2022-10-16T00:55:07;12.40;99.90
31455;DHT22;18084;53.028;8.834;2022-10-16T00:57:33;12.40;99.90
31455;DHT22;18084;53.028;8.834;2022-10-16T00:59:59;12.30;99.90
31455;DHT22;18084;53.028;8.834;2022-10-16T01:02:25;12.30;99.90
31455;DHT22;18084;53.028;8.834;2022-10-16T01:04:51;12.30;99.90
31455;DHT22;18084;53.028;8.834;2022-10-16T01:10:36;12.20;99.90
31455;DHT22;18084;53.028;8.834;2022-10-16T01:15:42;12.10;99.90
31455;DHT22;18084;53.028;8.834;2022-10-16T01:20:49;12.00;99.90
31455;DHT22;18084;53.028;8.834;2022-10-16T01:32:17;11.90;99.90
31455;DHT22;18084;53.028;8.834;2022-10-16T01:40:14;11.90;99.90
31455;DHT22;18084;53.028;8.834;2022-10-16T01:42:58;11.90;99.90
31455;DHT22;18084;53.028;8.834;2022-10-16T01:45:25;11.90;99.90
31455;DHT22;18084;53.028;8.834;2022-10-16T01:47:53;11.80;99.90
31455;DHT22;18084;53.028;8.834;2022-10-16T01:50:20;11.80;99.90
31455;DHT22;18084;53.028;8.834;2022-10-16T01:52:49;11.80;99.90
31455;DHT22;18084;53.028;8.834;2022-10-16T01:55:21;11.80;99.90
31455;DHT22;18084;53.028;8.834;2022-10-16T01:57:49;11.80;99.90
31455;DHT22;18084;53.028;8.834;2022-10-16T02:00:17;11.80;99.90
31455;DHT22;18084;53.028;8.834;2022-10-16T02:02:47;11.80;99.90
31455;DHT22;18084;53.028;8.834;2022-10-16T02:05:28;11.80;99.90
31455;DHT22;18084;53.028;8.834;2022-10-16T02:07:56;11.80;99.90
31455;DHT22;18084;53.028;8.834;2022-10-16T02:10:21;11.80;99.90
31455;DHT22;18084;53.028;8.834;2022-10-16T02:12:58;11.70;99.90
31455;DHT22;18084;53.028;8.834;2022-10-16T02:15:25;11.70;99.90
31455;DHT22;18084;53.028;8.834;2022-10-16T02:17:51;11.70;99.90
31455;DHT22;18084;53.028;8.834;2022-10-16T02:20:16;11.70;99.90
31455;DHT22;18084;53.028;8.834;2022-10-16T02:22:46;11.60;99.90
31455;DHT22;18084;53.028;8.834;2022-10-16T02:25:22;11.60;99.90
31455;DHT22;18084;53.028;8.834;2022-10-16T02:30:39;11.50;99.90
31455;DHT22;18084;53.028;8.834;2022-10-16T02:33:09;11.50;99.90
31455;DHT22;18084;53.028;8.834;2022-10-16T02:35:36;11.40;99.90
31455;DHT22;18084;53.028;8.834;2022-10-16T02:38:03;11.50;99.90
31455;DHT22;18084;53.028;8.834;2022-10-16T02:40:29;11.40;99.90
31455;DHT22;18084;53.028;8.834;2022-10-16T02:42:55;11.40;99.90
31455;DHT22;18084;53.028;8.834;2022-10-16T02:45:21;11.40;99.90
31455;DHT22;18084;53.028;8.834;2022-10-16T02:47:47;11.40;99.90
31455;DHT22;18084;53.028;8.834;2022-10-16T02:50:13;11.40;99.90
31455;DHT22;18084;53.028;8.834;2022-10-16T02:52:39;11.40;99.90
31455;DHT22;18084;53.028;8.834;2022-10-16T02:55:04;11.40;99.90
31455;DHT22;18084;53.028;8.834;2022-10-16T02:57:30;11.40;99.90
31455;DHT22;18084;53.028;8.834;2022-10-16T02:59:57;11.30;99.90
31455;DHT22;18084;53.028;8.834;2022-10-16T03:02:23;11.30;99.90
31455;DHT22;18084;53.028;8.834;2022-10-16T03:04:48;11.50;99.90
31455;DHT22;18084;53.028;8.834;2022-10-16T03:07:13;11.30;99.90
31455;DHT22;18084;53.028;8.834;2022-10-16T03:09:39;11.40;99.90
31455;DHT22;18084;53.028;8.834;2022-10-16T03:12:05;11.30;99.90
31455;DHT22;18084;53.028;8.834;2022-10-16T03:14:30;11.30;99.90
31455;DHT22;18084;53.028;8.834;2022-10-16T03:16:56;11.30;99.90
31455;DHT22;18084;53.028;8.834;2022-10-16T03:19:25;11.20;99.90
31455;DHT22;18084;53.028;8.834;2022-10-16T03:21:50;12.50;99.90
31455;DHT22;18084;53.028;8.834;2022-10-16T03:24:23;11.80;99.90
31455;DHT22;18084;53.028;8.834;2022-10-16T03:26:49;11.30;99.90
31455;DHT22;18084;53.028;8.834;2022-10-16T03:29:15;13.20;99.90
31455;DHT22;18084;53.028;8.834;2022-10-16T03:31:41;11.20;99.90
31455;DHT22;18084;53.028;8.834;2022-10-16T03:34:07;11.20;99.90
31455;DHT22;18084;53.028;8.834;2022-10-16T03:36:32;11.20;99.90
31455;DHT22;18084;53.028;8.834;2022-10-16T03:38:59;11.30;99.90
31455;DHT22;18084;53.028;8.834;2022-10-16T03:41:34;11.30;99.90
31455;DHT22;18084;53.028;8.834;2022-10-16T03:44:06;11.20;99.90
31455;DHT22;18084;53.028;8.834;2022-10-16T03:46:31;11.20;99.90
31455;DHT22;18084;53.028;8.834;2022-10-16T03:48:57;13.10;99.90
31455;DHT22;18084;53.028;8.834;2022-10-16T03:51:26;13.60;99.90
31455;DHT22;18084;53.028;8.834;2022-10-16T03:54:00;13.40;99.90
31455;DHT22;18084;53.028;8.834;2022-10-16T03:56:32;11.30;99.90
31455;DHT22;18084;53.028;8.834;2022-10-16T03:59:03;13.10;99.90
31455;DHT22;18084;53.028;8.834;2022-10-16T04:01:29;11.40;99.90
31455;DHT22;18084;53.028;8.834;2022-10-16T04:03:54;13.10;99.90
31455;DHT22;18084;53.028;8.834;2022-10-16T04:06:23;13.20;99.90
31455;DHT22;18084;53.028;8.834;2022-10-16T04:08:49;11.60;99.90
31455;DHT22;18084;53.028;8.834;2022-10-16T04:11:15;13.70;99.90
31455;DHT22;18084;53.028;8.834;2022-10-16T04:13:40;10.50;99.90
31455;DHT22;18084;53.028;8.834;2022-10-16T04:16:06;9.80;99.90
31455;DHT22;18084;53.028;8.834;2022-10-16T04:18:47;11.80;99.90
31455;DHT22;18084;53.028;8.834;2022-10-16T04:21:13;12.40;99.90
31455;DHT22;18084;53.028;8.834;2022-10-16T04:23:39;11.20;99.90
31455;DHT22;18084;53.028;8.834;2022-10-16T04:26:08;13.50;99.90
31455;DHT22;18084;53.028;8.834;2022-10-16T04:28:36;11.70;99.90
31455;DHT22;18084;53.028;8.834;2022-10-16T04:31:11;13.80;99.90
31455;DHT22;18084;53.028;8.834;2022-10-16T04:33:42;12.30;99.90
31455;DHT22;18084;53.028;8.834;2022-10-16T04:36:16;12.20;99.90
31455;DHT22;18084;53.028;8.834;2022-10-16T04:38:42;11.90;99.90
31455;DHT22;18084;53.028;8.834;2022-10-16T04:41:11;12.00;99.90
31455;DHT22;18084;53.028;8.834;2022-10-16T04:43:37;13.70;99.90
31455;DHT22;18084;53.028;8.834;2022-10-16T04:46:03;11.10;99.90
31455;DHT22;18084;53.028;8.834;2022-10-16T04:48:30;12.00;99.90
31455;DHT22;18084;53.028;8.834;2022-10-16T04:50:56;11.80;99.90
31455;DHT22;18084;53.028;8.834;2022-10-16T04:55:50;11.90;99.90
31455;DHT22;18084;53.028;8.834;2022-10-16T04:58:16;13.30;99.90
31455;DHT22;18084;53.028;8.834;2022-10-16T05:00:41;11.70;99.90
31455;DHT22;18084;53.028;8.834;2022-10-16T05:03:07;11.80;99.90
31455;DHT22;18084;53.028;8.834;2022-10-16T05:05:34;11.60;99.90
31455;DHT22;18084;53.028;8.834;2022-10-16T05:08:00;13.00;99.90
31455;DHT22;18084;53.028;8.834;2022-10-16T05:10:26;12.80;99.90
31455;DHT22;18084;53.028;8.834;2022-10-16T05:12:52;11.80;99.90
31455;DHT22;18084;53.028;8.834;2022-10-16T05:15:18;11.70;99.90
31455;DHT22;18084;53.028;8.834;2022-10-16T05:17:44;11.60;99.90
31455;DHT22;18084;53.028;8.834;2022-10-16T05:20:09;11.50;99.90
31455;DHT22;18084;53.028;8.834;2022-10-16T05:22:35;13.90;99.90
31455;DHT22;18084;53.028;8.834;2022-10-16T05:25:01;11.50;99.90
31455;DHT22;18084;53.028;8.834;2022-10-16T05:27:26;12.10;99.90
31455;DHT22;18084;53.028;8.834;2022-10-16T05:29:52;13.50;99.90
31455;DHT22;18084;53.028;8.834;2022-10-16T05:32:18;12.90;99.90
31455;DHT22;18084;53.028;8.834;2022-10-16T05:34:44;11.70;99.90
31455;DHT22;18084;53.028;8.834;2022-10-16T05:37:10;11.90;99.90
31455;DHT22;18084;53.028;8.834;2022-10-16T05:39:37;14.00;99.90
31455;DHT22;18084;53.028;8.834;2022-10-16T05:42:02;11.70;99.90
31455;DHT22;18084;53.028;8.834;2022-10-16T05:44:28;12.00;99.90
31455;DHT22;18084;53.028;8.834;2022-10-16T05:46:54;11.80;99.90
31455;DHT22;18084;53.028;8.834;2022-10-16T05:49:19;14.00;99.90
31455;DHT22;18084;53.028;8.834;2022-10-16T05:51:45;11.80;99.90
31455;DHT22;18084;53.028;8.834;2022-10-16T05:54:10;13.70;99.90
31455;DHT22;18084;53.028;8.834;2022-10-16T05:56:36;11.80;99.90
31455;DHT22;18084;53.028;8.834;2022-10-16T05:59:03;12.00;99.90
31455;DHT22;18084;53.028;8.834;2022-10-16T06:01:29;12.70;99.90
31455;DHT22;18084;53.028;8.834;2022-10-16T06:03:56;12.10;99.90
31455;DHT22;18084;53.028;8.834;2022-10-16T06:06:22;13.10;99.90
31455;DHT22;18084;53.028;8.834;2022-10-16T06:08:49;14.00;99.90
31455;DHT22;18084;53.028;8.834;2022-10-16T06:11:26;14.60;99.90
31455;DHT22;18084;53.028;8.834;2022-10-16T06:13:53;12.20;99.90
31455;DHT22;18084;53.028;8.834;2022-10-16T06:16:20;13.30;99.90
31455;DHT22;18084;53.028;8.834;2022-10-16T06:18:45;12.30;99.90
31455;DHT22;18084;53.028;8.834;2022-10-16T06:21:14;12.00;99.90
31455;DHT22;18084;53.028;8.834;2022-10-16T06:23:41;12.20;99.90
31455;DHT22;18084;53.028;8.834;2022-10-16T06:26:07;14.20;99.90
31455;DHT22;18084;53.028;8.834;2022-10-16T06:28:33;12.30;99.90
31455;DHT22;18084;53.028;8.834;2022-10-16T06:30:59;14.70;99.90
31455;DHT22;18084;53.028;8.834;2022-10-16T06:33:25;12.30;99.90
31455;DHT22;18084;53.028;8.834;2022-10-16T06:35:51;12.40;99.90
31455;DHT22;18084;53.028;8.834;2022-10-16T06:38:16;14.30;99.90
31455;DHT22;18084;53.028;8.834;2022-10-16T06:40:42;13.80;99.90
31455;DHT22;18084;53.028;8.834;2022-10-16T06:43:07;12.90;99.90
31455;DHT22;18084;53.028;8.834;2022-10-16T06:45:33;13.40;99.90
31455;DHT22;18084;53.028;8.834;2022-10-16T06:47:58;12.60;99.90
31455;DHT22;18084;53.028;8.834;2022-10-16T06:50:24;14.90;99.90
31455;DHT22;18084;53.028;8.834;2022-10-16T06:52:49;12.60;99.90
31455;DHT22;18084;53.028;8.834;2022-10-16T06:55:15;13.20;99.90
31455;DHT22;18084;53.028;8.834;2022-10-16T06:57:42;12.70;99.90
31455;DHT22;18084;53.028;8.834;2022-10-16T07:00:08;14.50;99.90
31455;DHT22;18084;53.028;8.834;2022-10-16T07:02:34;12.90;99.90
31455;DHT22;18084;53.028;8.834;2022-10-16T07:04:59;12.90;99.90
31455;DHT22;18084;53.028;8.834;2022-10-16T07:07:25;14.80;99.90
31455;DHT22;18084;53.028;8.834;2022-10-16T07:09:52;13.20;99.90
31455;DHT22;18084;53.028;8.834;2022-10-16T07:12:17;13.30;99.90
31455;DHT22;18084;53.028;8.834;2022-10-16T07:14:43;13.20;99.90
31455;DHT22;18084;53.028;8.834;2022-10-16T07:17:08;15.10;99.90
31455;DHT22;18084;53.028;8.834;2022-10-16T07:19:34;13.50;99.90
31455;DHT22;18084;53.028;8.834;2022-10-16T07:22:00;14.10;99.90
31455;DHT22;18084;53.028;8.834;2022-10-16T07:24:25;13.60;99.90
31455;DHT22;18084;53.028;8.834;2022-10-16T07:26:51;16.00;99.90
31455;DHT22;18084;53.028;8.834;2022-10-16T07:29:19;13.70;99.90
31455;DHT22;18084;53.028;8.834;2022-10-16T07:31:46;13.90;99.90
31455;DHT22;18084;53.028;8.834;2022-10-16T07:34:13;14.90;99.90
31455;DHT22;18084;53.028;8.834;2022-10-16T07:36:39;16.00;99.90
31455;DHT22;18084;53.028;8.834;2022-10-16T07:39:04;15.10;99.90
31455;DHT22;18084;53.028;8.834;2022-10-16T07:41:30;14.60;99.90
31455;DHT22;18084;53.028;8.834;2022-10-16T07:43:58;14.70;99.90
31455;DHT22;18084;53.028;8.834;2022-10-16T07:46:28;14.80;99.90
31455;DHT22;18084;53.028;8.834;2022-10-16T07:48:54;16.10;99.90
31455;DHT22;18084;53.028;8.834;2022-10-16T07:51:21;14.80;99.90
31455;DHT22;18084;53.028;8.834;2022-10-16T07:53:47;14.90;99.90
31455;DHT22;18084;53.028;8.834;2022-10-16T07:56:13;14.90;99.90
31455;DHT22;18084;53.028;8.834;2022-10-16T07:58:39;14.80;99.90
31455;DHT22;18084;53.028;8.834;2022-10-16T08:01:05;14.90;99.90
31455;DHT22;18084;53.028;8.834;2022-10-16T08:03:31;14.80;99.90
31455;DHT22;18084;53.028;8.834;2022-10-16T08:05:57;14.90;99.90
31455;DHT22;18084;53.028;8.834;2022-10-16T08:08:22;15.20;99.90
31455;DHT22;18084;53.028;8.834;2022-10-16T08:10:48;15.40;99.90
31455;DHT22;18084;53.028;8.834;2022-10-16T08:13:13;15.70;99.60
31455;DHT22;18084;53.028;8.834;2022-10-16T08:15:41;16.30;95.20
31455;DHT22;18084;53.028;8.834;2022-10-16T08:18:06;16.80;78.90
31455;DHT22;18084;53.028;8.834;2022-10-16T08:20:33;17.00;61.20
31455;DHT22;18084;53.028;8.834;2022-10-16T08:23:02;17.00;60.20
31455;DHT22;18084;53.028;8.834;2022-10-16T08:25:28;16.90;57.80
31455;DHT22;18084;53.028;8.834;2022-10-16T08:27:54;17.00;40.70
31455;DHT22;18084;53.028;8.834;2022-10-16T08:30:21;17.40;48.60
31455;DHT22;18084;53.028;8.834;2022-10-16T08:32:47;17.40;39.10
31455;DHT22;18084;53.028;8.834;2022-10-16T08:35:13;16.90;49.90
31455;DHT22;18084;53.028;8.834;2022-10-16T08:37:40;16.60;68.20
31455;DHT22;18084;53.028;8.834;2022-10-16T08:40:07;16.60;58.60
31455;DHT22;18084;53.028;8.834;2022-10-16T08:43:00;16.80;62.50
31455;DHT22;18084;53.028;8.834;2022-10-16T08:48:46;17.30;23.00
31455;DHT22;18084;53.028;8.834;2022-10-16T08:51:26;17.70;18.70
31455;DHT22;18084;53.028;8.834;2022-10-16T08:54:43;18.80;1.00
31455;DHT22;18084;53.028;8.834;2022-10-16T08:56:43;19.70;99.90
31455;DHT22;18084;53.028;8.834;2022-10-16T08:59:10;20.20;99.90
31455;DHT22;18084;53.028;8.834;2022-10-16T09:01:48;20.50;99.90
31455;DHT22;18084;53.028;8.834;2022-10-16T09:04:39;20.80;99.90
31455;DHT22;18084;53.028;8.834;2022-10-16T09:15:06;21.70;41.70
31455;DHT22;18084;53.028;8.834;2022-10-16T09:20:16;21.60;99.90
31455;DHT22;18084;53.028;8.834;2022-10-16T09:22:43;21.40;99.90
31455;DHT22;18084;53.028;8.834;2022-10-16T09:25:14;21.80;99.90
31455;DHT22;18084;53.028;8.834;2022-10-16T09:27:43;21.70;1.00
31455;DHT22;18084;53.028;8.834;2022-10-16T09:30:15;21.60;99.90
31455;DHT22;18084;53.028;8.834;2022-10-16T09:32:42;21.50;99.90
31455;DHT22;18084;53.028;8.834;2022-10-16T09:35:20;20.90;99.90
31455;DHT22;18084;53.028;8.834;2022-10-16T09:37:49;20.40;99.90
31455;DHT22;18084;53.028;8.834;2022-10-16T09:42:56;19.10;99.90
31455;DHT22;18084;53.028;8.834;2022-10-16T09:45:23;19.20;99.90
31455;DHT22;18084;53.028;8.834;2022-10-16T09:47:49;18.60;99.90
31455;DHT22;18084;53.028;8.834;2022-10-16T09:50:28;18.70;51.30
31455;DHT22;18084;53.028;8.834;2022-10-16T09:55:30;18.40;99.90
31455;DHT22;18084;53.028;8.834;2022-10-16T09:57:57;18.30;99.90
31455;DHT22;18084;53.028;8.834;2022-10-16T10:00:24;18.20;99.90
31455;DHT22;18084;53.028;8.834;2022-10-16T10:02:52;17.80;99.90
31455;DHT22;18084;53.028;8.834;2022-10-16T10:05:27;18.10;99.90
31455;DHT22;18084;53.028;8.834;2022-10-16T10:08:01;18.30;1.00
31455;DHT22;18084;53.028;8.834;2022-10-16T10:10:33;18.70;99.90
31455;DHT22;18084;53.028;8.834;2022-10-16T10:13:00;19.00;1.00
31455;DHT22;18084;53.028;8.834;2022-10-16T10:15:29;19.00;99.90
31455;DHT22;18084;53.028;8.834;2022-10-16T10:17:58;19.40;99.90
31455;DHT22;18084;53.028;8.834;2022-10-16T10:20:34;19.40;99.90
31455;DHT22;18084;53.028;8.834;2022-10-16T10:23:21;19.40;42.80
31455;DHT22;18084;53.028;8.834;2022-10-16T10:26:11;19.20;1.00
31455;DHT22;18084;53.028;8.834;2022-10-16T10:34:32;19.00;99.90
31455;DHT22;18084;53.028;8.834;2022-10-16T10:37:27;18.90;84.20
31455;DHT22;18084;53.028;8.834;2022-10-16T10:43:21;18.90;14.90
31455;DHT22;18084;53.028;8.834;2022-10-16T10:45:54;18.50;99.90
31455;DHT22;18084;53.028;8.834;2022-10-16T10:48:43;18.70;1.00
31455;DHT22;18084;53.028;8.834;2022-10-16T10:51:41;18.50;20.40
31455;DHT22;18084;53.028;8.834;2022-10-16T10:57:14;18.60;99.90
31455;DHT22;18084;53.028;8.834;2022-10-16T11:00:12;18.50;99.90
31455;DHT22;18084;53.028;8.834;2022-10-16T11:02:48;18.60;99.90
31455;DHT22;18084;53.028;8.834;2022-10-16T11:08:19;18.70;85.20
31455;DHT22;18084;53.028;8.834;2022-10-16T11:10:58;18.40;99.90
31455;DHT22;18084;53.028;8.834;2022-10-16T11:14:42;18.90;99.90
31455;DHT22;18084;53.028;8.834;2022-10-16T11:16:42;18.20;99.90
31455;DHT22;18084;53.028;8.834;2022-10-16T11:19:19;20.20;99.90
31455;DHT22;18084;53.028;8.834;2022-10-16T11:22:01;18.20;99.90
31455;DHT22;18084;53.028;8.834;2022-10-16T11:24:35;18.60;99.90
31455;DHT22;18084;53.028;8.834;2022-10-16T11:27:09;18.70;23.50
31455;DHT22;18084;53.028;8.834;2022-10-16T11:29:59;18.80;99.90
31455;DHT22;18084;53.028;8.834;2022-10-16T11:33:35;18.90;1.00
31455;DHT22;18084;53.028;8.834;2022-10-16T11:35:49;18.80;99.90
31455;DHT22;18084;53.028;8.834;2022-10-16T11:41:02;19.00;99.90
31455;DHT22;18084;53.028;8.834;2022-10-16T11:43:37;18.90;99.90
31455;DHT22;18084;53.028;8.834;2022-10-16T11:46:10;19.80;99.90
31455;DHT22;18084;53.028;8.834;2022-10-16T11:51:38;18.00;99.90
31455;DHT22;18084;53.028;8.834;2022-10-16T11:54:26;18.90;31.90
31455;DHT22;18084;53.028;8.834;2022-10-16T11:56:58;19.00;1.00
31455;DHT22;18084;53.028;8.834;2022-10-16T11:59:32;19.70;94.50
31455;DHT22;18084;53.028;8.834;2022-10-16T12:04:51;19.40;99.90
31455;DHT22;18084;53.028;8.834;2022-10-16T12:07:22;19.50;99.90
31455;DHT22;18084;53.028;8.834;2022-10-16T12:09:50;20.00;99.90
31455;DHT22;18084;53.028;8.834;2022-10-16T12:12:48;19.50;69.80
31455;DHT22;18084;53.028;8.834;2022-10-16T12:15:25;19.40;99.90
31455;DHT22;18084;53.028;8.834;2022-10-16T12:17:52;19.30;92.20
31455;DHT22;18084;53.028;8.834;2022-10-16T12:20:30;19.00;82.10
31455;DHT22;18084;53.028;8.834;2022-10-16T12:23:00;18.90;99.90
31455;DHT22;18084;53.028;8.834;2022-10-16T12:25:30;18.70;99.90
31455;DHT22;18084;53.028;8.834;2022-10-16T12:28:06;18.50;99.90
31455;DHT22;18084;53.028;8.834;2022-10-16T12:30:36;18.50;99.90
31455;DHT22;18084;53.028;8.834;2022-10-16T12:33:05;18.50;99.90
31455;DHT22;18084;53.028;8.834;2022-10-16T12:35:46;18.30;99.90
31455;DHT22;18084;53.028;8.834;2022-10-16T12:38:17;17.20;99.90
31455;DHT22;18084;53.028;8.834;2022-10-16T12:40:54;18.20;99.90
31455;DHT22;18084;53.028;8.834;2022-10-16T12:45:46;18.00;1.00
31455;DHT22;18084;53.028;8.834;2022-10-16T12:48:22;18.00;1.00
31455;DHT22;18084;53.028;8.834;2022-10-16T12:50:48;18.00;1.00
31455;DHT22;18084;53.028;8.834;2022-10-16T12:53:22;20.60;99.90
31455;DHT22;18084;53.028;8.834;2022-10-16T13:09:30;18.60;99.90
31455;DHT22;18084;53.028;8.834;2022-10-16T13:12:01;18.60;99.90
31455;DHT22;18084;53.028;8.834;2022-10-16T13:23:00;18.60;33.10
31455;DHT22;18084;53.028;8.834;2022-10-16T13:28:10;18.70;54.30
31455;DHT22;18084;53.028;8.834;2022-10-16T13:30:44;18.50;91.10
31455;DHT22;18084;53.028;8.834;2022-10-16T13:35:50;18.70;42.90
31455;DHT22;18084;53.028;8.834;2022-10-16T13:38:21;20.50;1.00
31455;DHT22;18084;53.028;8.834;2022-10-16T13:40:59;18.90;1.00
31455;DHT22;18084;53.028;8.834;2022-10-16T13:43:40;19.00;1.00
31455;DHT22;18084;53.028;8.834;2022-10-16T13:46:13;19.10;99.90
31455;DHT22;18084;53.028;8.834;2022-10-16T13:48:40;19.00;99.90
31455;DHT22;18084;53.028;8.834;2022-10-16T13:51:06;19.00;99.90
31455;DHT22;18084;53.028;8.834;2022-10-16T13:53:37;18.80;99.90
31455;DHT22;18084;53.028;8.834;2022-10-16T13:56:04;18.60;99.90
31455;DHT22;18084;53.028;8.834;2022-10-16T13:58:30;18.40;99.90
31455;DHT22;18084;53.028;8.834;2022-10-16T14:00:59;20.40;99.90
31455;DHT22;18084;53.028;8.834;2022-10-16T14:03:25;18.30;1.00
31455;DHT22;18084;53.028;8.834;2022-10-16T14:05:59;18.40;1.00
31455;DHT22;18084;53.028;8.834;2022-10-16T14:08:27;18.40;99.90
31455;DHT22;18084;53.028;8.834;2022-10-16T14:11:04;18.50;1.00
31455;DHT22;18084;53.028;8.834;2022-10-16T14:13:52;18.60;99.90
31455;DHT22;18084;53.028;8.834;2022-10-16T14:16:20;18.50;99.90
31455;DHT22;18084;53.028;8.834;2022-10-16T14:19:00;18.60;99.90
31455;DHT22;18084;53.028;8.834;2022-10-16T14:21:26;18.60;99.90
31455;DHT22;18084;53.028;8.834;2022-10-16T14:23:53;18.50;99.90
31455;DHT22;18084;53.028;8.834;2022-10-16T14:26:22;18.60;99.90
31455;DHT22;18084;53.028;8.834;2022-10-16T14:28:49;18.50;99.90
31455;DHT22;18084;53.028;8.834;2022-10-16T14:31:30;20.90;99.90
31455;DHT22;18084;53.028;8.834;2022-10-16T14:33:56;18.00;99.90
31455;DHT22;18084;53.028;8.834;2022-10-16T14:36:22;18.90;1.00
31455;DHT22;18084;53.028;8.834;2022-10-16T14:39:04;21.00;1.00
31455;DHT22;18084;53.028;8.834;2022-10-16T14:41:31;18.20;99.90
31455;DHT22;18084;53.028;8.834;2022-10-16T14:44:02;18.60;1.00
31455;DHT22;18084;53.028;8.834;2022-10-16T14:46:33;18.40;1.00
31455;DHT22;18084;53.028;8.834;2022-10-16T14:49:03;18.30;99.90
31455;DHT22;18084;53.028;8.834;2022-10-16T14:51:30;18.20;1.00
31455;DHT22;18084;53.028;8.834;2022-10-16T14:53:56;21.10;1.00
31455;DHT22;18084;53.028;8.834;2022-10-16T14:56:23;19.10;1.00
31455;DHT22;18084;53.028;8.834;2022-10-16T14:58:51;21.20;1.00
31455;DHT22;18084;53.028;8.834;2022-10-16T15:01:17;18.30;1.00
31455;DHT22;18084;53.028;8.834;2022-10-16T15:03:43;20.20;99.90
31455;DHT22;18084;53.028;8.834;2022-10-16T15:06:11;18.80;1.00
31455;DHT22;18084;53.028;8.834;2022-10-16T15:08:37;18.80;1.00
31455;DHT22;18084;53.028;8.834;2022-10-16T15:11:03;19.50;1.00
31455;DHT22;18084;53.028;8.834;2022-10-16T15:13:29;18.10;1.00
31455;DHT22;18084;53.028;8.834;2022-10-16T15:15:54;18.30;1.00
31455;DHT22;18084;53.028;8.834;2022-10-16T15:18:20;18.10;1.00
31455;DHT22;18084;53.028;8.834;2022-10-16T15:20:49;18.00;1.00
31455;DHT22;18084;53.028;8.834;2022-10-16T15:23:17;19.50;1.00
31455;DHT22;18084;53.028;8.834;2022-10-16T15:25:51;20.20;1.00
31455;DHT22;18084;53.028;8.834;2022-10-16T15:28:18;17.80;1.00
31455;DHT22;18084;53.028;8.834;2022-10-16T15:30:45;19.50;1.00
31455;DHT22;18084;53.028;8.834;2022-10-16T15:33:16;17.70;62.40
31455;DHT22;18084;53.028;8.834;2022-10-16T15:35:45;17.60;62.00
31455;DHT22;18084;53.028;8.834;2022-10-16T15:38:12;20.30;71.50
31455;DHT22;18084;53.028;8.834;2022-10-16T15:40:39;17.50;99.90
31455;DHT22;18084;53.028;8.834;2022-10-16T15:43:05;19.80;99.90
31455;DHT22;18084;53.028;8.834;2022-10-16T15:45:31;18.40;99.90
31455;DHT22;18084;53.028;8.834;2022-10-16T15:47:56;17.20;99.90
31455;DHT22;18084;53.028;8.834;2022-10-16T15:50:22;18.10;1.00
31455;DHT22;18084;53.028;8.834;2022-10-16T15:52:48;18.10;1.00
31455;DHT22;18084;53.028;8.834;2022-10-16T15:55:14;17.10;71.70
31455;DHT22;18084;53.028;8.834;2022-10-16T15:57:40;17.10;1.00
31455;DHT22;18084;53.028;8.834;2022-10-16T16:00:08;16.90;99.90
31455;DHT22;18084;53.028;8.834;2022-10-16T16:02:35;16.90;99.90
31455;DHT22;18084;53.028;8.834;2022-10-16T16:05:01;16.80;99.90
31455;DHT22;18084;53.028;8.834;2022-10-16T16:07:27;19.70;55.10
31455;DHT22;18084;53.028;8.834;2022-10-16T16:09:53;19.00;99.90
31455;DHT22;18084;53.028;8.834;2022-10-16T16:12:18;18.00;99.90
31455;DHT22;18084;53.028;8.834;2022-10-16T16:14:44;17.80;1.00
31455;DHT22;18084;53.028;8.834;2022-10-16T16:17:11;16.60;99.90
31455;DHT22;18084;53.028;8.834;2022-10-16T16:19:37;19.30;99.90
31455;DHT22;18084;53.028;8.834;2022-10-16T16:22:02;16.20;99.90
31455;DHT22;18084;53.028;8.834;2022-10-16T16:24:28;18.70;1.70
31455;DHT22;18084;53.028;8.834;2022-10-16T16:26:54;17.00;9.20
31455;DHT22;18084;53.028;8.834;2022-10-16T16:29:19;16.60;99.90
31455;DHT22;18084;53.028;8.834;2022-10-16T16:31:45;16.60;14.40
31455;DHT22;18084;53.028;8.834;2022-10-16T16:34:12;18.10;99.90
31455;DHT22;18084;53.028;8.834;2022-10-16T16:36:38;17.30;99.90
31455;DHT22;18084;53.028;8.834;2022-10-16T16:39:06;17.40;99.90
31455;DHT22;18084;53.028;8.834;2022-10-16T16:41:32;17.70;99.90
31455;DHT22;18084;53.028;8.834;2022-10-16T16:44:01;17.00;99.90
31455;DHT22;18084;53.028;8.834;2022-10-16T16:46:27;15.20;99.90
31455;DHT22;18084;53.028;8.834;2022-10-16T16:48:53;15.60;99.90
31455;DHT22;18084;53.028;8.834;2022-10-16T16:51:21;14.90;1.00
31455;DHT22;18084;53.028;8.834;2022-10-16T16:53:49;17.30;1.00
31455;DHT22;18084;53.028;8.834;2022-10-16T16:56:15;16.00;1.00
31455;DHT22;18084;53.028;8.834;2022-10-16T16:58:43;17.60;1.00
31455;DHT22;18084;53.028;8.834;2022-10-16T17:01:10;16.20;1.00
31455;DHT22;18084;53.028;8.834;2022-10-16T17:03:36;16.70;1.00
31455;DHT22;18084;53.028;8.834;2022-10-16T17:06:03;15.00;1.00
31455;DHT22;18084;53.028;8.834;2022-10-16T17:08:29;16.00;1.00
31455;DHT22;18084;53.028;8.834;2022-10-16T17:10:55;16.70;1.00
31455;DHT22;18084;53.028;8.834;2022-10-16T17:13:23;16.50;1.00
31455;DHT22;18084;53.028;8.834;2022-10-16T17:15:50;15.70;1.00
31455;DHT22;18084;53.028;8.834;2022-10-16T17:18:16;16.00;1.10
31455;DHT22;18084;53.028;8.834;2022-10-16T17:20:42;16.60;1.00
31455;DHT22;18084;53.028;8.834;2022-10-16T17:23:09;16.60;1.00
31455;DHT22;18084;53.028;8.834;2022-10-16T17:25:41;15.90;1.00